createdAt,value
2018-09-13T00:01:54.683Z,78.81
2018-09-13T00:04:23.535Z,78.76
2018-09-13T00:06:52.516Z,78.75
2018-09-13T00:09:21.357Z,77.78
2018-09-13T00:11:50.210Z,78.56
2018-09-13T00:14:19.044Z,78.38
2018-09-13T00:16:47.871Z,78.29
2018-09-13T00:19:16.736Z,78.61
2018-09-13T00:21:45.572Z,78.74
2018-09-13T00:24:14.402Z,78.86
2018-09-13T00:26:43.282Z,78.34
2018-09-13T00:29:12.126Z,78.66
2018-09-13T00:31:40.970Z,78.66
2018-09-13T00:34:09.806Z,78.74
2018-09-13T00:36:38.648Z,79.00
2018-09-13T00:39:08.151Z,78.58
2018-09-13T00:41:37.358Z,78.87
2018-09-13T00:44:06.286Z,78.92
2018-09-13T00:46:35.559Z,78.91
2018-09-13T00:49:04.747Z,79.02
2018-09-13T00:51:34.071Z,78.74
2018-09-13T00:54:02.979Z,78.79
2018-09-13T00:56:31.834Z,78.82
2018-09-13T00:59:00.721Z,78.78
2018-09-13T01:01:29.502Z,78.64
2018-09-13T01:03:58.338Z,78.80
2018-09-13T01:06:27.178Z,78.82
2018-09-13T01:08:56.024Z,79.18
2018-09-13T01:11:24.853Z,79.07
2018-09-13T01:13:53.664Z,78.77
2018-09-13T01:16:22.506Z,79.03
2018-09-13T01:18:51.330Z,78.74
2018-09-13T01:21:20.443Z,78.90
2018-09-13T01:23:49.275Z,79.07
2018-09-13T01:26:18.116Z,79.04
2018-09-13T01:28:47.042Z,79.19
2018-09-13T01:31:15.897Z,79.01
2018-09-13T01:33:44.711Z,78.88
2018-09-13T01:36:13.538Z,79.03
2018-09-13T01:38:42.409Z,79.20
2018-09-13T01:41:11.225Z,77.70
2018-09-13T01:43:40.071Z,78.67
2018-09-13T01:46:08.897Z,78.28
2018-09-13T01:48:37.710Z,78.18
2018-09-13T01:51:06.644Z,78.18
2018-09-13T01:53:35.477Z,78.46
2018-09-13T01:56:04.340Z,78.45
2018-09-13T01:58:33.174Z,78.64
2018-09-13T02:01:02.031Z,78.72
2018-09-13T02:03:30.905Z,78.77
2018-09-13T02:05:59.757Z,78.95
2018-09-13T02:08:28.625Z,79.17
2018-09-13T02:10:57.462Z,79.12
2018-09-13T02:13:26.297Z,79.06
2018-09-13T02:15:55.163Z,79.23
2018-09-13T02:18:23.978Z,79.07
2018-09-13T02:20:52.799Z,79.09
2018-09-13T02:23:21.624Z,79.23
2018-09-13T02:25:50.448Z,79.22
2018-09-13T02:28:19.292Z,79.07
2018-09-13T02:30:48.141Z,79.66
2018-09-13T02:33:16.992Z,79.27
2018-09-13T02:35:45.818Z,79.25
2018-09-13T02:38:14.651Z,78.98
2018-09-13T02:40:43.474Z,79.17
2018-09-13T02:43:12.286Z,79.10
2018-09-13T02:45:41.118Z,79.25
2018-09-13T02:48:09.972Z,78.92
2018-09-13T02:50:38.798Z,79.23
2018-09-13T02:53:07.965Z,78.75
2018-09-13T02:55:36.780Z,78.85
2018-09-13T02:58:05.637Z,79.17
2018-09-13T03:00:34.472Z,79.05
2018-09-13T03:03:03.303Z,79.14
2018-09-13T03:05:32.100Z,79.50
2018-09-13T03:08:00.927Z,79.58
2018-09-13T03:10:29.744Z,79.49
2018-09-13T03:12:58.584Z,79.58
2018-09-13T03:15:27.419Z,80.02
2018-09-13T03:17:56.235Z,79.58
2018-09-13T03:20:25.075Z,79.97
2018-09-13T03:22:53.920Z,79.90
2018-09-13T03:25:22.740Z,79.53
2018-09-13T03:27:51.819Z,79.65
2018-09-13T03:30:20.667Z,79.85
2018-09-13T03:32:49.591Z,79.52
2018-09-13T03:35:18.688Z,79.30
2018-09-13T03:37:47.539Z,78.95
2018-09-13T03:40:16.352Z,78.77
2018-09-13T03:42:45.183Z,78.87
2018-09-13T03:45:14.035Z,79.05
2018-09-13T03:47:42.914Z,78.87
2018-09-13T03:50:11.779Z,78.95
2018-09-13T03:52:40.594Z,79.20
2018-09-13T03:55:09.433Z,79.58
2018-09-13T03:57:38.267Z,79.59
2018-09-13T04:00:07.379Z,79.61
2018-09-13T04:02:36.216Z,78.23
2018-09-13T04:05:05.098Z,79.45
2018-09-13T04:07:33.956Z,79.46
2018-09-13T04:10:02.811Z,79.42
2018-09-13T04:12:31.619Z,79.41
2018-09-13T04:15:00.453Z,79.56
2018-09-13T04:17:29.309Z,79.77
2018-09-13T04:19:58.162Z,79.63
2018-09-13T04:22:27.069Z,79.50
2018-09-13T04:24:55.876Z,79.66
2018-09-13T04:27:24.774Z,79.79
2018-09-13T04:29:53.586Z,79.86
2018-09-13T04:32:22.433Z,79.81
2018-09-13T04:34:51.245Z,79.80
2018-09-13T04:37:20.089Z,77.54
2018-09-13T04:39:48.914Z,78.52
2018-09-13T04:42:17.768Z,78.58
2018-09-13T04:44:46.675Z,78.31
2018-09-13T04:47:15.541Z,78.38
2018-09-13T04:49:44.364Z,78.30
2018-09-13T04:52:13.239Z,78.46
2018-09-13T04:54:42.089Z,78.54
2018-09-13T04:57:10.934Z,78.70
2018-09-13T04:59:39.763Z,78.57
2018-09-13T05:02:08.585Z,77.42
2018-09-13T05:04:37.429Z,78.46
2018-09-13T05:07:06.234Z,78.25
2018-09-13T05:09:35.066Z,78.13
2018-09-13T05:12:03.896Z,78.10
2018-09-13T05:14:32.763Z,78.23
2018-09-13T05:17:01.664Z,78.73
2018-09-13T05:19:30.516Z,78.79
2018-09-13T05:21:59.332Z,78.88
2018-09-13T05:24:28.247Z,78.91
2018-09-13T05:26:56.988Z,78.96
2018-09-13T05:29:25.808Z,78.85
2018-09-13T05:31:54.662Z,79.02
2018-09-13T05:34:23.507Z,78.94
2018-09-13T05:36:52.392Z,78.96
2018-09-13T05:39:21.229Z,79.24
2018-09-13T05:41:50.046Z,79.33
2018-09-13T05:44:18.879Z,79.01
2018-09-13T05:46:47.722Z,78.92
2018-09-13T05:49:16.559Z,78.69
2018-09-13T05:51:45.420Z,78.66
2018-09-13T05:54:14.288Z,78.45
2018-09-13T05:56:43.148Z,78.48
2018-09-13T05:59:11.981Z,78.23
2018-09-13T06:01:40.844Z,78.06
2018-09-13T06:04:09.690Z,78.00
2018-09-13T06:06:38.547Z,78.20
2018-09-13T06:09:08.011Z,78.17
2018-09-13T06:11:36.849Z,76.93
2018-09-13T06:14:05.961Z,78.12
2018-09-13T06:16:35.501Z,78.46
2018-09-13T06:19:04.337Z,78.67
2018-09-13T06:21:33.177Z,78.65
2018-09-13T06:24:02.026Z,78.69
2018-09-13T06:26:30.882Z,78.59
2018-09-13T06:28:59.733Z,78.55
2018-09-13T06:31:28.569Z,78.63
2018-09-13T06:33:57.392Z,78.67
2018-09-13T06:36:26.307Z,78.83
2018-09-13T06:38:55.084Z,78.62
2018-09-13T06:41:23.896Z,78.57
2018-09-13T06:43:52.729Z,78.60
2018-09-13T06:46:21.606Z,78.42
2018-09-13T06:48:50.427Z,78.27
2018-09-13T06:51:19.256Z,78.12
2018-09-13T06:53:48.116Z,78.20
2018-09-13T06:56:16.948Z,78.24
2018-09-13T06:58:45.765Z,78.22
2018-09-13T07:01:14.631Z,77.63
2018-09-13T07:03:43.471Z,75.84
2018-09-13T07:06:12.294Z,75.27
2018-09-13T07:08:41.144Z,74.01
2018-09-13T07:11:09.970Z,73.97
2018-09-13T07:13:39.449Z,72.49
2018-09-13T07:16:08.271Z,72.22
2018-09-13T07:18:37.079Z,71.84
2018-09-13T07:21:06.039Z,70.89
2018-09-13T07:23:34.928Z,70.71
2018-09-13T07:26:03.669Z,70.22
2018-09-13T07:28:32.520Z,69.60
2018-09-13T07:31:01.556Z,68.87
2018-09-13T07:33:30.313Z,68.49
2018-09-13T07:35:59.129Z,68.01
2018-09-13T07:38:27.992Z,66.98
2018-09-13T07:40:56.809Z,62.56
2018-09-13T07:43:25.654Z,64.67
2018-09-13T07:45:54.481Z,64.51
2018-09-13T07:48:23.321Z,65.00
2018-09-13T07:50:52.157Z,62.85
2018-09-13T07:53:21.001Z,62.61
2018-09-13T07:55:49.892Z,60.89
2018-09-13T07:58:18.666Z,63.01
2018-09-13T08:00:47.512Z,62.38
2018-09-13T08:03:16.369Z,63.04
2018-09-13T08:05:45.207Z,62.65
2018-09-13T08:08:14.050Z,58.01
2018-09-13T08:10:42.887Z,57.84
2018-09-13T08:13:11.780Z,57.84
2018-09-13T08:15:40.632Z,56.95
2018-09-13T08:18:09.705Z,56.20
2018-09-13T08:20:38.531Z,56.84
2018-09-13T08:23:07.466Z,57.04
2018-09-13T08:25:36.239Z,58.50
2018-09-13T08:28:05.055Z,59.37
2018-09-13T08:30:33.921Z,59.81
2018-09-13T08:33:02.932Z,60.11
2018-09-13T08:35:31.807Z,59.88
2018-09-13T08:38:00.657Z,59.26
2018-09-13T08:40:30.381Z,59.43
2018-09-13T08:43:05.357Z,60.31
2018-09-13T08:45:36.364Z,59.95
2018-09-13T08:48:08.659Z,57.58
2018-09-13T08:50:40.719Z,56.31
2018-09-13T08:53:09.756Z,57.53
2018-09-13T08:55:41.046Z,57.54
2018-09-13T08:58:10.053Z,56.76
2018-09-13T09:00:39.058Z,55.55
2018-09-13T09:03:08.046Z,53.23
2018-09-13T09:05:39.364Z,51.08
2018-09-13T09:08:08.618Z,44.69
2018-09-13T09:10:38.226Z,39.34
2018-09-13T09:13:07.400Z,35.75
2018-09-13T09:15:39.048Z,31.33
2018-09-13T09:18:08.614Z,34.14
2018-09-13T09:20:46.642Z,35.93
2018-09-13T09:23:15.849Z,34.67
2018-09-13T09:25:48.180Z,32.52
2018-09-13T09:28:17.079Z,28.85
2018-09-13T09:30:46.044Z,27.46
2018-09-13T09:33:15.235Z,26.27
2018-09-13T09:35:47.344Z,25.84
2018-09-13T09:38:16.465Z,23.40
2018-09-13T09:40:50.936Z,21.35
2018-09-13T09:43:17.947Z,23.14
2018-09-13T09:45:50.098Z,23.39
2018-09-13T09:48:19.414Z,25.94
2018-09-13T09:50:54.509Z,25.46
2018-09-13T09:53:23.824Z,24.03
2018-09-13T09:55:53.031Z,22.97
2018-09-13T09:58:22.376Z,21.39
2018-09-13T10:01:09.549Z,23.12
2018-09-13T10:03:41.481Z,21.74
2018-09-13T10:06:17.816Z,21.26
2018-09-13T10:08:49.184Z,23.25
2018-09-13T10:11:18.452Z,21.07
2018-09-13T10:13:49.069Z,21.00
2018-09-13T10:16:48.238Z,20.91
2018-09-13T10:19:35.015Z,22.35
2018-09-13T10:22:25.394Z,22.76
2018-09-13T10:25:12.256Z,22.09
2018-09-13T10:28:00.111Z,23.27
2018-09-13T10:30:47.073Z,22.93
2018-09-13T10:33:36.067Z,23.68
2018-09-13T10:36:24.331Z,23.33
2018-09-13T10:39:12.397Z,20.05
2018-09-13T10:42:03.357Z,21.74
2018-09-13T10:44:51.559Z,20.56
2018-09-13T10:47:42.162Z,21.72
2018-09-13T10:50:28.622Z,23.88
2018-09-13T10:53:11.783Z,21.45
2018-09-13T10:55:43.765Z,22.94
2018-09-13T10:58:15.485Z,22.55
2018-09-13T11:00:44.616Z,22.96
2018-09-13T11:03:13.694Z,21.73
2018-09-13T11:05:43.035Z,19.96
2018-09-13T11:08:12.119Z,22.88
2018-09-13T11:10:45.595Z,20.88
2018-09-13T11:13:35.224Z,21.71
2018-09-13T11:16:02.852Z,23.51
2018-09-13T11:18:38.319Z,26.44
2018-09-13T11:21:07.715Z,26.31
2018-09-13T11:23:36.845Z,26.47
2018-09-13T11:26:06.068Z,25.15
2018-09-13T11:28:40.082Z,18.99
2018-09-13T11:31:09.064Z,21.22
2018-09-13T11:33:40.747Z,22.11
2018-09-13T11:36:11.536Z,23.36
2018-09-13T11:38:42.592Z,24.42
2018-09-13T11:41:11.962Z,24.63
2018-09-13T11:43:46.446Z,24.84
2018-09-13T11:46:16.795Z,27.67
2018-09-13T11:48:45.929Z,29.67
2018-09-13T11:51:17.496Z,28.76
2018-09-13T11:53:46.758Z,30.74
2018-09-13T11:56:15.793Z,30.60
2018-09-13T11:58:44.758Z,30.47
2018-09-13T12:01:13.919Z,28.87
2018-09-13T12:03:42.974Z,29.87
2018-09-13T12:06:12.044Z,29.55
2018-09-13T12:08:40.881Z,31.89
2018-09-13T12:11:09.706Z,30.42
2018-09-13T12:13:38.528Z,29.86
2018-09-13T12:16:07.398Z,29.52
2018-09-13T12:18:36.283Z,31.77
2018-09-13T12:21:05.115Z,31.07
2018-09-13T12:23:33.951Z,31.51
2018-09-13T12:26:02.780Z,31.42
2018-09-13T12:28:31.641Z,34.71
2018-09-13T12:31:00.463Z,35.45
2018-09-13T12:33:29.396Z,35.04
2018-09-13T12:35:58.209Z,35.83
2018-09-13T12:38:27.037Z,34.15
2018-09-13T12:40:55.952Z,32.35
2018-09-13T12:43:24.790Z,35.25
2018-09-13T12:45:53.591Z,33.10
2018-09-13T12:48:22.444Z,33.66
2018-09-13T12:50:51.275Z,34.26
2018-09-13T12:53:20.117Z,33.13
2018-09-13T12:55:55.986Z,33.20
2018-09-13T12:58:26.086Z,34.67
2018-09-13T13:00:54.988Z,32.62
2018-09-13T13:03:23.856Z,31.15
2018-09-13T13:05:52.976Z,31.33
2018-09-13T13:08:21.819Z,33.75
2018-09-13T13:10:50.672Z,30.69
2018-09-13T13:13:19.523Z,30.61
2018-09-13T13:15:48.406Z,29.94
2018-09-13T13:18:17.245Z,31.97
2018-09-13T13:20:46.085Z,31.76
2018-09-13T13:23:14.943Z,32.54
2018-09-13T13:25:43.783Z,33.05
2018-09-13T13:28:12.605Z,32.91
2018-09-13T13:30:41.419Z,33.04
2018-09-13T13:33:10.257Z,32.86
2018-09-13T13:35:39.059Z,32.83
2018-09-13T13:38:07.953Z,34.17
2018-09-13T13:40:36.791Z,32.84
2018-09-13T13:43:05.625Z,33.22
2018-09-13T13:45:34.491Z,35.11
2018-09-13T13:48:03.318Z,35.39
2018-09-13T13:50:32.124Z,35.57
2018-09-13T13:53:00.960Z,34.64
2018-09-13T13:55:29.840Z,33.94
2018-09-13T13:57:58.800Z,34.88
2018-09-13T14:00:27.648Z,35.63
2018-09-13T14:02:56.486Z,36.59
2018-09-13T14:05:25.321Z,36.58
2018-09-13T14:07:54.170Z,38.64
2018-09-13T14:10:23.009Z,36.90
2018-09-13T14:12:51.841Z,37.61
2018-09-13T14:15:20.666Z,37.71
2018-09-13T14:17:49.494Z,38.48
2018-09-13T14:20:18.418Z,39.33
2018-09-13T14:22:47.238Z,39.97
2018-09-13T14:25:16.148Z,37.60
2018-09-13T14:27:44.962Z,36.92
2018-09-13T14:30:13.832Z,36.65
2018-09-13T14:32:42.656Z,36.10
2018-09-13T14:35:11.500Z,36.52
2018-09-13T14:37:40.350Z,36.10
2018-09-13T14:40:09.532Z,35.89
2018-09-13T14:42:38.390Z,33.80
2018-09-13T14:45:07.213Z,35.11
2018-09-13T14:47:36.058Z,34.35
2018-09-13T14:50:04.848Z,34.45
2018-09-13T14:52:33.714Z,33.95
2018-09-13T14:55:02.578Z,33.54
2018-09-13T14:57:31.415Z,33.80
2018-09-13T15:00:00.276Z,35.05
2018-09-13T15:02:30.033Z,34.93
2018-09-13T15:04:59.011Z,35.22
2018-09-13T15:07:28.036Z,35.25
2018-09-13T15:10:06.628Z,35.10
2018-09-13T15:12:35.634Z,35.75
2018-09-13T15:15:04.897Z,36.57
2018-09-13T15:17:34.055Z,36.15
2018-09-13T15:20:03.415Z,35.80
2018-09-13T15:22:38.406Z,35.08
2018-09-13T15:25:07.503Z,35.48
2018-09-13T15:27:36.606Z,35.48
2018-09-13T15:30:06.151Z,36.09
2018-09-13T15:32:35.286Z,36.63
2018-09-13T15:35:04.353Z,37.16
2018-09-13T15:37:33.481Z,38.89
2018-09-13T15:40:02.610Z,38.75
2018-09-13T15:42:34.294Z,39.96
2018-09-13T15:45:03.214Z,40.61
2018-09-13T15:47:34.328Z,41.17
2018-09-13T15:50:03.529Z,41.26
2018-09-13T15:52:35.468Z,41.79
2018-09-13T15:55:04.741Z,42.53
2018-09-13T15:57:33.681Z,43.15
2018-09-13T16:00:02.697Z,41.51
2018-09-13T16:02:31.835Z,42.27
2018-09-13T16:05:00.888Z,42.47
2018-09-13T16:07:30.001Z,42.62
2018-09-13T16:09:59.008Z,42.76
2018-09-13T16:12:28.250Z,42.57
2018-09-13T16:14:57.288Z,42.13
2018-09-13T16:17:26.562Z,43.03
2018-09-13T16:19:58.841Z,41.49
2018-09-13T16:22:27.881Z,41.59
2018-09-13T16:24:58.992Z,40.98
2018-09-13T16:27:31.243Z,40.78
2018-09-13T16:30:00.890Z,41.10
2018-09-13T16:32:29.985Z,41.41
2018-09-13T16:34:59.928Z,40.77
2018-09-13T16:37:46.815Z,39.72
2018-09-13T16:40:33.939Z,39.74
2018-09-13T16:43:15.743Z,39.42
2018-09-13T16:45:44.743Z,39.06
2018-09-13T16:48:13.819Z,39.55
2018-09-13T16:50:42.941Z,39.52
2018-09-13T16:53:12.305Z,39.15
2018-09-13T16:55:41.546Z,39.67
2018-09-13T16:58:10.653Z,39.67
2018-09-13T17:00:42.602Z,39.79
2018-09-13T17:03:15.369Z,40.89
2018-09-13T17:05:44.497Z,40.23
2018-09-13T17:08:13.483Z,40.58
2018-09-13T17:10:42.652Z,40.16
2018-09-13T17:13:15.220Z,39.65
2018-09-13T17:15:44.524Z,39.85
2018-09-13T17:18:13.876Z,41.29
2018-09-13T17:20:43.096Z,42.41
2018-09-13T17:23:12.290Z,41.65
2018-09-13T17:25:41.446Z,42.50
2018-09-13T17:28:10.636Z,42.27
2018-09-13T17:30:43.018Z,41.98
2018-09-13T17:33:12.110Z,43.25
2018-09-13T17:35:43.470Z,44.01
2018-09-13T17:38:12.534Z,44.32
2018-09-13T17:40:41.669Z,44.85
2018-09-13T17:43:12.790Z,45.00
2018-09-13T17:45:45.183Z,44.71
2018-09-13T17:48:14.321Z,46.04
2018-09-13T17:50:43.514Z,46.62
2018-09-13T17:53:12.456Z,47.06
2018-09-13T17:55:44.320Z,47.23
2018-09-13T17:58:15.969Z,48.10
2018-09-13T18:00:42.524Z,49.52
2018-09-13T18:03:11.789Z,49.55
2018-09-13T18:05:40.900Z,49.22
2018-09-13T18:08:10.072Z,49.64
2018-09-13T18:10:39.226Z,50.42
2018-09-13T18:13:08.454Z,50.91
2018-09-13T18:15:37.551Z,50.76
2018-09-13T18:18:06.791Z,51.72
2018-09-13T18:20:35.940Z,51.87
2018-09-13T18:23:05.150Z,52.57
2018-09-13T18:25:34.186Z,50.80
2018-09-13T18:28:03.196Z,50.51
2018-09-13T18:30:32.552Z,51.10
2018-09-13T18:33:01.320Z,51.57
2018-09-13T18:35:30.163Z,50.81
2018-09-13T18:37:58.989Z,51.61
2018-09-13T18:40:27.821Z,51.38
2018-09-13T18:42:56.656Z,51.91
2018-09-13T18:45:25.492Z,52.21
2018-09-13T18:47:54.503Z,52.41
2018-09-13T18:50:23.361Z,52.00
2018-09-13T18:52:52.230Z,51.96
2018-09-13T18:55:21.487Z,52.53
2018-09-13T18:57:50.339Z,53.34
2018-09-13T19:00:19.271Z,53.76
2018-09-13T19:02:48.110Z,54.69
2018-09-13T19:05:16.922Z,54.74
2018-09-13T19:07:45.739Z,54.01
2018-09-13T19:10:14.560Z,54.45
2018-09-13T19:12:43.401Z,54.75
2018-09-13T19:15:12.213Z,55.30
2018-09-13T19:17:41.097Z,56.16
2018-09-13T19:20:09.900Z,56.33
2018-09-13T19:22:38.771Z,56.60
2018-09-13T19:25:07.600Z,56.69
2018-09-13T19:27:36.437Z,57.27
2018-09-13T19:30:05.310Z,57.60
2018-09-13T19:32:34.130Z,57.95
2018-09-13T19:35:02.988Z,58.80
2018-09-13T19:37:31.864Z,58.90
2018-09-13T19:40:00.694Z,59.04
2018-09-13T19:42:29.549Z,58.71
2018-09-13T19:44:58.391Z,59.01
2018-09-13T19:47:27.227Z,59.40
2018-09-13T19:49:56.052Z,59.78
2018-09-13T19:52:24.873Z,59.71
2018-09-13T19:54:53.737Z,59.90
2018-09-13T19:57:22.581Z,60.27
2018-09-13T19:59:51.488Z,60.53
2018-09-13T20:02:20.376Z,60.81
2018-09-13T20:04:49.242Z,60.90
2018-09-13T20:07:18.037Z,61.71
2018-09-13T20:09:46.855Z,61.65
2018-09-13T20:12:15.806Z,62.00
2018-09-13T20:14:44.552Z,61.96
2018-09-13T20:17:13.403Z,61.68
2018-09-13T20:19:42.228Z,62.58
2018-09-13T20:22:11.947Z,62.72
2018-09-13T20:24:40.844Z,62.64
2018-09-13T20:27:09.614Z,62.79
2018-09-13T20:29:38.481Z,63.13
2018-09-13T20:32:07.349Z,63.51
2018-09-13T20:34:36.175Z,63.79
2018-09-13T20:37:05.064Z,63.62
2018-09-13T20:39:33.961Z,63.90
2018-09-13T20:42:02.824Z,64.12
2018-09-13T20:44:31.650Z,64.17
2018-09-13T20:47:00.491Z,64.35
2018-09-13T20:49:29.389Z,64.61
2018-09-13T20:51:58.222Z,64.45
2018-09-13T20:54:27.093Z,64.82
2018-09-13T20:56:55.929Z,64.70
2018-09-13T20:59:24.757Z,64.99
2018-09-13T21:01:53.588Z,65.61
2018-09-13T21:04:22.431Z,65.96
2018-09-13T21:06:51.235Z,65.75
2018-09-13T21:09:20.131Z,66.01
2018-09-13T21:11:48.958Z,65.95
2018-09-13T21:14:17.810Z,66.11
2018-09-13T21:16:46.646Z,66.07
2018-09-13T21:19:15.476Z,66.34
2018-09-13T21:21:44.350Z,66.58
2018-09-13T21:24:13.227Z,66.75
2018-09-13T21:26:42.035Z,66.77
2018-09-13T21:29:10.851Z,66.84
2018-09-13T21:31:39.718Z,66.26
2018-09-13T21:34:08.536Z,67.36
2018-09-13T21:36:37.395Z,66.14
2018-09-13T21:39:08.597Z,67.04
2018-09-13T21:41:37.463Z,66.99
2018-09-13T21:44:06.281Z,67.00
2018-09-13T21:46:35.139Z,67.05
2018-09-13T21:49:03.972Z,67.11
2018-09-13T21:51:32.830Z,67.07
2018-09-13T21:54:01.652Z,67.38
2018-09-13T21:56:30.490Z,67.30
2018-09-13T21:58:59.420Z,67.40
2018-09-13T22:01:28.408Z,67.21
2018-09-13T22:03:57.424Z,67.01
2018-09-13T22:06:26.277Z,67.02
2018-09-13T22:08:55.152Z,67.19
2018-09-13T22:11:24.080Z,67.14
2018-09-13T22:13:52.826Z,67.55
2018-09-13T22:16:21.636Z,67.49
2018-09-13T22:18:50.477Z,66.46
2018-09-13T22:21:19.294Z,67.73
2018-09-13T22:23:48.117Z,67.68
2018-09-13T22:26:16.953Z,66.84
2018-09-13T22:28:45.779Z,67.82
2018-09-13T22:31:14.626Z,67.89
2018-09-13T22:33:43.477Z,68.22
2018-09-13T22:36:12.320Z,68.12
2018-09-13T22:38:41.136Z,68.05
2018-09-13T22:41:09.985Z,67.04
2018-09-13T22:43:51.442Z,68.17
2018-09-13T22:46:21.644Z,68.39
2018-09-13T22:48:50.506Z,68.39
2018-09-13T22:51:19.933Z,68.67
2018-09-13T22:53:48.807Z,68.58
2018-09-13T22:56:17.691Z,68.35
2018-09-13T22:58:46.533Z,68.45
2018-09-13T23:01:15.391Z,67.73
2018-09-13T23:03:44.246Z,67.97
2018-09-13T23:06:13.111Z,68.04
2018-09-13T23:08:41.927Z,67.13
2018-09-13T23:11:10.752Z,68.12
2018-09-13T23:13:39.599Z,66.65
2018-09-13T23:16:08.556Z,67.93
2018-09-13T23:18:37.254Z,67.73
2018-09-13T23:21:06.095Z,67.86
2018-09-13T23:23:34.947Z,67.95
2018-09-13T23:26:03.792Z,68.18
2018-09-13T23:28:32.634Z,68.22
2018-09-13T23:31:01.460Z,68.66
2018-09-13T23:33:30.301Z,68.76
2018-09-13T23:35:59.115Z,68.88
2018-09-13T23:38:27.945Z,68.90
2018-09-13T23:40:56.783Z,68.76
2018-09-13T23:43:25.614Z,68.79
2018-09-13T23:45:54.434Z,69.09
2018-09-13T23:48:23.296Z,69.30
2018-09-13T23:50:52.120Z,68.83
2018-09-13T23:53:20.953Z,68.97
2018-09-13T23:55:49.800Z,68.92
2018-09-13T23:58:18.640Z,69.06
